Westmount, Canada
Current Conditions -  °F | °C
As of 6:00 AM on Tuesday 21 Oct 2014 (Local Time) from CYUL Reporting Station
Light Rain Light Rain  
Wind Chill: 36°   Ceiling: 4000
Heat Index: 43°   Visibility: 15mi
Dew Point: 39°   Wind: 14mph
Humidity: 87%   Direction: 40°NE
Pressure: 29.96"   Gusts: 20mph
Location:  45.48°N, 73.6°W
Report Text: CYUL 211000Z 04012G17KT 15SM -RA OVC040 06/04 A2996 RMK SC8 SLP145
Loading
Personal Weather Stations






























Interactive Weather Map New forecast layout! Learn more

10-Day Weather Forecast

Advertisements
Track Severe Weather on mobile